createdAt,value
2018-02-13T00:01:31.227Z,19.77
2018-02-13T00:03:58.744Z,16.63
2018-02-13T00:06:26.183Z,17.70
2018-02-13T00:08:53.646Z,20.27
2018-02-13T00:11:21.099Z,22.80
2018-02-13T00:13:48.554Z,18.00
2018-02-13T00:16:16.015Z,27.77
2018-02-13T00:18:43.486Z,25.23
2018-02-13T00:21:10.943Z,20.43
2018-02-13T00:23:38.416Z,24.30
2018-02-13T00:26:05.871Z,20.73
2018-02-13T00:28:33.339Z,19.27
2018-02-13T00:31:00.794Z,19.70
2018-02-13T00:33:28.259Z,23.43
2018-02-13T00:35:55.720Z,19.00
2018-02-13T00:38:23.213Z,23.27
2018-02-13T00:40:50.678Z,21.87
2018-02-13T00:43:18.151Z,21.40
2018-02-13T00:45:45.632Z,21.40
2018-02-13T00:48:13.098Z,20.70
2018-02-13T00:50:40.567Z,18.95
2018-02-13T00:53:08.020Z,24.13
2018-02-13T00:55:35.490Z,24.07
2018-02-13T00:58:03.711Z,19.83
2018-02-13T01:00:31.187Z,20.40
2018-02-13T01:02:58.642Z,23.65
2018-02-13T01:05:26.111Z,24.27
2018-02-13T01:07:53.570Z,22.53
2018-02-13T01:10:21.039Z,21.13
2018-02-13T01:12:49.958Z,24.70
2018-02-13T01:15:17.428Z,20.03
2018-02-13T01:17:44.891Z,19.80
2018-02-13T01:20:12.359Z,21.47
2018-02-13T01:22:39.811Z,22.03
2018-02-13T01:25:07.275Z,20.43
2018-02-13T01:27:34.728Z,21.33
2018-02-13T01:30:02.187Z,22.50
2018-02-13T01:32:29.639Z,18.07
2018-02-13T01:34:57.114Z,24.45
2018-02-13T01:37:24.580Z,25.10
2018-02-13T01:39:52.043Z,25.50
2018-02-13T01:42:19.503Z,21.43
2018-02-13T01:44:47.733Z,19.60
2018-02-13T01:47:15.187Z,24.40
2018-02-13T01:49:42.638Z,19.60
2018-02-13T01:52:10.107Z,20.23
2018-02-13T01:54:37.564Z,19.67
2018-02-13T01:57:05.030Z,17.97
2018-02-13T01:59:32.490Z,19.43
2018-02-13T02:01:59.958Z,27.10
2018-02-13T02:04:27.415Z,22.47
2018-02-13T02:06:54.883Z,21.27
2018-02-13T02:09:22.335Z,19.43
2018-02-13T02:11:49.796Z,23.07
2018-02-13T02:14:17.256Z,22.13
2018-02-13T02:16:45.496Z,22.93
2018-02-13T02:19:13.666Z,16.60
2018-02-13T02:21:41.143Z,21.23
2018-02-13T02:24:08.600Z,19.00
2018-02-13T02:26:36.059Z,20.80
2018-02-13T02:29:03.518Z,22.23
2018-02-13T02:31:30.975Z,19.87
2018-02-13T02:33:58.427Z,23.40
2018-02-13T02:36:25.886Z,18.27
2018-02-13T02:38:53.331Z,15.57
2018-02-13T02:41:20.800Z,20.30
2018-02-13T02:43:48.255Z,19.10
2018-02-13T02:46:15.704Z,18.20
2018-02-13T02:48:43.171Z,17.07
2018-02-13T02:51:10.623Z,25.43
2018-02-13T02:53:38.094Z,19.67
2018-02-13T02:56:06.320Z,23.03
2018-02-13T02:58:33.782Z,23.40
2018-02-13T03:01:01.234Z,18.00
2018-02-13T03:03:28.700Z,23.47
2018-02-13T03:05:56.155Z,22.63
2018-02-13T03:08:24.127Z,20.37
2018-02-13T03:10:51.586Z,16.47
2018-02-13T03:13:19.059Z,23.53
2018-02-13T03:15:47.327Z,20.27
2018-02-13T03:18:14.805Z,20.95
2018-02-13T03:20:43.036Z,20.43
2018-02-13T03:23:10.499Z,16.10
2018-02-13T03:25:37.958Z,16.97
2018-02-13T03:28:05.425Z,18.60
2018-02-13T03:30:32.894Z,18.77
2018-02-13T03:33:00.348Z,22.10
2018-02-13T03:35:27.812Z,21.43
2018-02-13T03:37:56.045Z,19.20
2018-02-13T03:40:23.517Z,16.70
2018-02-13T03:42:50.963Z,21.77
2018-02-13T03:45:18.422Z,21.90
2018-02-13T03:47:45.894Z,16.33
2018-02-13T03:50:13.359Z,20.13
2018-02-13T03:52:40.816Z,15.40
2018-02-13T03:55:08.275Z,18.60
2018-02-13T03:57:36.503Z,18.50
2018-02-13T04:00:03.967Z,21.60
2018-02-13T04:02:31.435Z,18.67
2018-02-13T04:04:58.899Z,21.13
2018-02-13T04:07:26.362Z,18.50
2018-02-13T04:09:53.815Z,18.03
2018-02-13T04:12:21.271Z,16.43
2018-02-13T04:14:48.730Z,17.47
2018-02-13T04:17:16.187Z,21.17
2018-02-13T04:19:43.650Z,17.37
2018-02-13T04:22:11.111Z,20.27
2018-02-13T04:24:39.359Z,17.33
2018-02-13T04:27:06.810Z,18.30
2018-02-13T04:29:34.284Z,16.00
2018-02-13T04:32:01.740Z,17.67
2018-02-13T04:34:29.203Z,19.47
2018-02-13T04:36:56.659Z,20.63
2018-02-13T04:39:24.127Z,15.20
2018-02-13T04:41:52.347Z,17.70
2018-02-13T04:44:19.815Z,20.23
2018-02-13T04:46:47.274Z,19.43
2018-02-13T04:49:14.792Z,19.77
2018-02-13T04:51:42.206Z,21.10
2018-02-13T04:54:09.674Z,16.47
2018-02-13T04:56:37.130Z,20.90
2018-02-13T04:59:04.603Z,19.93
2018-02-13T05:01:32.827Z,14.43
2018-02-13T05:04:00.301Z,23.13
2018-02-13T05:06:27.755Z,17.90
2018-02-13T05:08:55.222Z,14.13
2018-02-13T05:11:22.687Z,16.67
2018-02-13T05:13:50.126Z,15.40
2018-02-13T05:16:17.596Z,16.93
2018-02-13T05:18:45.047Z,13.67
2018-02-13T05:21:12.507Z,20.53
2018-02-13T05:23:39.966Z,12.57
2018-02-13T05:26:08.195Z,13.20
2018-02-13T05:28:35.651Z,11.47
2018-02-13T05:31:03.126Z,13.17
2018-02-13T05:33:30.600Z,21.15
2018-02-13T05:35:58.067Z,15.70
2018-02-13T05:38:26.291Z,15.10
2018-02-13T05:40:53.764Z,22.50
2018-02-13T05:43:21.226Z,16.97
2018-02-13T05:45:49.311Z,16.75
2018-02-13T05:48:16.770Z,16.77
2018-02-13T05:50:44.227Z,19.33
2018-02-13T05:53:11.680Z,23.67
2018-02-13T05:55:39.152Z,18.10
2018-02-13T05:58:07.387Z,18.08
2018-02-13T06:00:35.381Z,17.90
2018-02-13T06:03:02.838Z,20.40
2018-02-13T06:05:30.290Z,20.83
2018-02-13T06:07:57.750Z,12.00
2018-02-13T06:10:25.264Z,14.68
2018-02-13T06:12:52.723Z,16.52
2018-02-13T06:15:20.188Z,13.80
2018-02-13T06:17:47.638Z,13.33
2018-02-13T06:20:15.091Z,14.30
2018-02-13T06:22:42.570Z,13.62
2018-02-13T06:25:10.027Z,16.00
2018-02-13T06:27:37.488Z,12.10
2018-02-13T06:30:04.953Z,14.07
2018-02-13T06:32:32.424Z,13.15
2018-02-13T06:34:59.878Z,11.30
2018-02-13T06:37:27.339Z,13.40
2018-02-13T06:39:55.563Z,14.67
2018-02-13T06:42:23.050Z,15.77
2018-02-13T06:44:50.507Z,13.18
2018-02-13T06:47:17.975Z,12.00
2018-02-13T06:49:45.431Z,13.77
2018-02-13T06:52:12.887Z,13.30
2018-02-13T06:54:40.345Z,16.63
2018-02-13T06:57:07.806Z,12.70
2018-02-13T06:59:35.263Z,13.40
2018-02-13T07:02:09.071Z,16.20
2018-02-13T07:04:37.302Z,14.10
2018-02-13T07:07:04.775Z,15.10
2018-02-13T07:09:32.222Z,14.30
2018-02-13T07:11:59.694Z,14.30
2018-02-13T07:14:27.165Z,16.45
2018-02-13T07:16:54.627Z,13.57
2018-02-13T07:19:22.847Z,14.90
2018-02-13T07:21:50.360Z,13.03
2018-02-13T07:24:17.780Z,15.13
2018-02-13T07:26:45.268Z,13.37
2018-02-13T07:29:12.727Z,31.70
2018-02-13T07:31:40.971Z,14.27
2018-02-13T07:34:08.439Z,17.40
2018-02-13T07:36:35.890Z,15.87
2018-02-13T07:39:03.359Z,15.57
2018-02-13T07:41:30.818Z,19.83
2018-02-13T07:43:58.278Z,16.40
2018-02-13T07:46:25.740Z,18.90
2018-02-13T07:48:53.979Z,17.00
2018-02-13T07:51:21.441Z,18.00
2018-02-13T07:53:48.907Z,20.23
2018-02-13T07:56:16.364Z,14.67
2018-02-13T07:58:43.826Z,15.50
2018-02-13T08:01:11.283Z,16.10
2018-02-13T08:03:38.742Z,17.13
2018-02-13T08:06:06.204Z,18.10
2018-02-13T08:08:34.432Z,16.07
2018-02-13T08:11:01.880Z,18.40
2018-02-13T08:13:29.339Z,14.30
2018-02-13T08:15:56.798Z,18.53
2018-02-13T08:18:24.268Z,16.03
2018-02-13T08:20:51.720Z,15.27
2018-02-13T08:23:19.201Z,23.60
2018-02-13T08:25:46.760Z,16.37
2018-02-13T08:28:14.215Z,14.00
2018-02-13T08:30:41.675Z,25.10
2018-02-13T08:33:09.120Z,11.83
2018-02-13T08:35:36.579Z,18.57
2018-02-13T08:38:04.045Z,12.13
2018-02-13T08:40:31.499Z,15.90
2018-02-13T08:42:58.948Z,12.00
2018-02-13T08:45:26.415Z,12.63
2018-02-13T08:47:53.859Z,10.97
2018-02-13T08:50:21.315Z,11.80
2018-02-13T08:52:48.772Z,17.43
2018-02-13T08:55:16.234Z,14.47
2018-02-13T08:57:43.683Z,15.53
2018-02-13T09:00:11.144Z,12.93
2018-02-13T09:02:38.597Z,14.93
2018-02-13T09:05:06.061Z,12.97
2018-02-13T09:07:33.507Z,14.30
2018-02-13T09:10:00.963Z,16.67
2018-02-13T09:12:28.410Z,21.30
2018-02-13T09:14:55.872Z,17.13
2018-02-13T09:17:23.319Z,11.40
2018-02-13T09:19:50.774Z,18.30
2018-02-13T09:22:18.227Z,14.93
2018-02-13T09:24:45.691Z,11.47
2018-02-13T09:27:13.143Z,18.93
2018-02-13T09:29:40.591Z,12.57
2018-02-13T09:32:08.054Z,17.47
2018-02-13T09:34:35.506Z,12.70
2018-02-13T09:37:02.954Z,16.70
2018-02-13T09:39:30.415Z,14.27
2018-02-13T09:41:57.879Z,15.17
2018-02-13T09:44:25.329Z,13.03
2018-02-13T09:46:52.782Z,12.97
2018-02-13T09:49:20.226Z,15.20
2018-02-13T09:51:47.683Z,9.40
2018-02-13T09:54:15.139Z,4.73
2018-02-13T09:56:42.607Z,8.40
2018-02-13T09:59:10.047Z,4.43
2018-02-13T10:01:37.502Z,3.57
2018-02-13T10:04:04.956Z,2.97
2018-02-13T10:06:32.414Z,4.23
2018-02-13T10:08:59.868Z,4.80
2018-02-13T10:11:27.307Z,3.90
2018-02-13T10:13:54.747Z,3.07
2018-02-13T10:16:22.958Z,4.90
2018-02-13T10:18:50.402Z,3.97
2018-02-13T10:21:17.839Z,6.80
2018-02-13T10:23:46.052Z,3.30
2018-02-13T10:26:13.499Z,3.37
2018-02-13T10:28:40.960Z,6.83
2018-02-13T10:31:08.410Z,4.30
2018-02-13T10:33:35.851Z,2.80
2018-02-13T10:36:03.304Z,3.87
2018-02-13T10:38:30.936Z,4.20
2018-02-13T10:40:58.346Z,2.27
2018-02-13T10:43:25.801Z,3.80
2018-02-13T10:45:53.251Z,10.20
2018-02-13T10:48:20.706Z,4.13
2018-02-13T10:50:48.959Z,4.23
2018-02-13T10:53:17.166Z,4.43
2018-02-13T10:55:44.612Z,4.50
2018-02-13T10:58:12.061Z,4.03
2018-02-13T11:00:45.092Z,3.97
2018-02-13T11:03:12.547Z,4.73
2018-02-13T11:05:39.991Z,4.87
2018-02-13T11:08:07.438Z,5.70
2018-02-13T11:10:34.877Z,5.87
2018-02-13T11:13:02.334Z,9.27
2018-02-13T11:15:29.791Z,5.90
2018-02-13T11:17:57.244Z,7.40
2018-02-13T11:20:24.686Z,4.73
2018-02-13T11:22:52.130Z,5.87
2018-02-13T11:25:19.576Z,3.37
2018-02-13T11:27:47.788Z,7.70
2018-02-13T11:30:15.241Z,3.83
2018-02-13T11:32:42.679Z,6.60
2018-02-13T11:35:10.125Z,5.97
2018-02-13T11:37:38.351Z,7.67
2018-02-13T11:40:05.798Z,7.77
2018-02-13T11:42:33.240Z,3.53
2018-02-13T11:45:00.683Z,8.30
2018-02-13T11:47:28.121Z,3.93
2018-02-13T11:49:56.365Z,6.17
2018-02-13T11:52:23.783Z,5.67
2018-02-13T11:54:51.234Z,6.10
2018-02-13T11:57:18.672Z,4.33
2018-02-13T11:59:46.114Z,6.50
2018-02-13T12:02:14.327Z,5.33
2018-02-13T12:04:41.779Z,5.63
2018-02-13T12:07:09.219Z,6.37
2018-02-13T12:09:36.663Z,4.37
2018-02-13T12:12:04.875Z,3.20
2018-02-13T12:14:32.327Z,6.13
2018-02-13T12:16:59.774Z,6.57
2018-02-13T12:19:27.233Z,4.13
2018-02-13T12:21:54.675Z,4.70
2018-02-13T12:24:22.118Z,3.70
2018-02-13T12:26:49.571Z,4.83
2018-02-13T12:29:17.799Z,6.30
2018-02-13T12:31:45.256Z,7.40
2018-02-13T12:34:12.710Z,7.23
2018-02-13T12:36:40.168Z,4.03
2018-02-13T12:39:07.619Z,5.77
2018-02-13T12:41:35.058Z,6.03
2018-02-13T12:44:02.509Z,6.33
2018-02-13T12:46:29.971Z,8.73
2018-02-13T12:48:57.422Z,5.73
2018-02-13T12:51:24.930Z,8.00
2018-02-13T12:53:52.362Z,8.00
2018-02-13T12:56:19.810Z,5.17
2018-02-13T12:58:47.271Z,10.33
2018-02-13T13:01:14.726Z,7.40
2018-02-13T13:03:42.170Z,10.40
2018-02-13T13:06:09.614Z,5.23
2018-02-13T13:08:37.065Z,6.67
2018-02-13T13:11:04.510Z,11.97
2018-02-13T13:13:31.955Z,7.30
2018-02-13T13:15:59.398Z,6.83
2018-02-13T13:18:27.611Z,12.77
2018-02-13T13:20:55.067Z,5.90
2018-02-13T13:23:22.510Z,4.80
2018-02-13T13:25:49.959Z,7.27
2018-02-13T13:28:17.403Z,4.90
2018-02-13T13:30:45.623Z,6.73
2018-02-13T13:33:13.883Z,5.30
2018-02-13T13:35:41.338Z,5.23
2018-02-13T13:38:08.782Z,5.53
2018-02-13T13:40:36.230Z,6.87
2018-02-13T13:43:03.686Z,5.97
2018-02-13T13:45:31.163Z,5.07
2018-02-13T13:47:58.620Z,7.77
2018-02-13T13:50:26.064Z,4.20
2018-02-13T13:52:53.515Z,4.93
2018-02-13T13:55:20.958Z,6.40
2018-02-13T13:57:48.406Z,5.50
2018-02-13T14:00:16.669Z,6.73
2018-02-13T14:02:44.083Z,4.57
2018-02-13T14:05:11.530Z,4.07
2018-02-13T14:07:38.983Z,4.63
2018-02-13T14:10:06.426Z,5.33
2018-02-13T14:12:33.873Z,4.67
2018-02-13T14:15:02.088Z,7.70
2018-02-13T14:17:33.971Z,10.90
2018-02-13T14:20:01.428Z,8.90
2018-02-13T14:22:28.880Z,17.10
2018-02-13T14:24:56.319Z,6.80
2018-02-13T14:27:23.771Z,4.97
2018-02-13T14:29:51.211Z,8.87
2018-02-13T14:32:18.667Z,9.20
2018-02-13T14:34:46.106Z,4.73
2018-02-13T14:37:13.559Z,5.13
2018-02-13T14:39:41.003Z,4.63
2018-02-13T14:42:09.230Z,5.47
2018-02-13T14:44:36.699Z,6.83
2018-02-13T14:47:04.154Z,5.97
2018-02-13T14:49:31.594Z,6.10
2018-02-13T14:51:59.046Z,8.50
2018-02-13T14:54:26.486Z,7.33
2018-02-13T14:56:53.955Z,7.63
2018-02-13T14:59:21.398Z,5.57
2018-02-13T15:01:48.843Z,7.57
2018-02-13T15:04:16.297Z,7.73
2018-02-13T15:06:43.735Z,8.37
2018-02-13T15:09:11.951Z,6.30
2018-02-13T15:11:39.400Z,6.43
2018-02-13T15:14:06.863Z,5.73
2018-02-13T15:16:34.310Z,7.83
2018-02-13T15:19:01.766Z,5.77
2018-02-13T15:21:29.207Z,7.07
2018-02-13T15:23:56.657Z,9.17
2018-02-13T15:26:24.106Z,7.90
2018-02-13T15:28:52.335Z,7.13
2018-02-13T15:31:20.548Z,9.30
2018-02-13T15:33:48.766Z,6.30
2018-02-13T15:36:16.216Z,5.70
2018-02-13T15:38:49.338Z,9.60
2018-02-13T15:41:16.791Z,7.97
2018-02-13T15:43:44.259Z,9.23
2018-02-13T15:46:11.711Z,8.50
2018-02-13T15:48:39.166Z,9.57
2018-02-13T15:51:06.618Z,8.03
2018-02-13T15:53:34.062Z,7.80
2018-02-13T15:56:01.515Z,6.90
2018-02-13T15:58:28.989Z,9.20
2018-02-13T16:00:56.447Z,16.03
2018-02-13T16:03:23.904Z,20.50
2018-02-13T16:05:51.366Z,11.13
2018-02-13T16:08:18.809Z,6.53
2018-02-13T16:10:46.263Z,9.70
2018-02-13T16:13:13.715Z,16.13
2018-02-13T16:15:41.174Z,13.70
2018-02-13T16:18:08.626Z,26.90
2018-02-13T16:20:36.104Z,12.20
2018-02-13T16:23:03.799Z,13.30
2018-02-13T16:25:31.258Z,37.60
2018-02-13T16:27:58.690Z,7.70
2018-02-13T16:30:26.163Z,14.40
2018-02-13T16:32:55.805Z,18.93
2018-02-13T16:35:23.295Z,19.53
2018-02-13T16:37:50.748Z,15.00
2018-02-13T16:40:19.021Z,29.20
2018-02-13T16:42:46.530Z,25.57
2018-02-13T16:45:14.001Z,20.03
2018-02-13T16:47:41.458Z,14.83
2018-02-13T16:50:08.914Z,14.77
2018-02-13T16:52:37.128Z,9.20
2018-02-13T16:55:04.578Z,8.10
2018-02-13T16:57:32.034Z,10.00
2018-02-13T16:59:59.490Z,12.63
2018-02-13T17:02:26.963Z,12.77
2018-02-13T17:04:54.414Z,14.67
2018-02-13T17:07:21.871Z,18.10
2018-02-13T17:09:49.318Z,11.03
2018-02-13T17:12:16.770Z,8.90
2018-02-13T17:14:44.234Z,10.33
2018-02-13T17:17:11.754Z,11.00
2018-02-13T17:19:43.376Z,10.03
2018-02-13T17:22:11.322Z,9.77
2018-02-13T17:24:38.816Z,11.00
2018-02-13T17:27:06.331Z,10.30
2018-02-13T17:29:33.707Z,8.97
2018-02-13T17:32:01.915Z,8.60
2018-02-13T17:34:29.371Z,10.40
2018-02-13T17:36:56.831Z,11.33
2018-02-13T17:39:24.266Z,9.73
2018-02-13T17:41:51.737Z,6.47
2018-02-13T17:44:19.178Z,8.63
2018-02-13T17:46:46.628Z,10.97
2018-02-13T17:49:14.071Z,8.93
2018-02-13T17:51:42.304Z,8.17
2018-02-13T17:54:09.890Z,17.77
2018-02-13T17:56:37.335Z,9.23
2018-02-13T17:59:04.802Z,8.37
2018-02-13T18:01:32.246Z,12.83
2018-02-13T18:03:59.703Z,11.37
2018-02-13T18:06:27.186Z,6.87
2018-02-13T18:08:55.395Z,9.53
2018-02-13T18:11:22.833Z,8.53
2018-02-13T18:13:50.286Z,11.60
2018-02-13T18:16:17.730Z,13.63
2018-02-13T18:18:45.959Z,14.27
2018-02-13T18:21:13.408Z,8.33
2018-02-13T18:23:40.861Z,10.63
2018-02-13T18:26:08.305Z,9.90
2018-02-13T18:28:35.759Z,15.10
2018-02-13T18:31:03.208Z,18.60
2018-02-13T18:33:30.675Z,23.07
2018-02-13T18:35:58.135Z,23.40
2018-02-13T18:38:25.598Z,31.63
2018-02-13T18:40:53.055Z,31.40
2018-02-13T18:43:20.520Z,32.70
2018-02-13T18:45:48.020Z,30.00
2018-02-13T18:48:15.422Z,42.70
2018-02-13T18:50:42.878Z,34.93
2018-02-13T18:55:37.791Z,34.40
2018-02-13T18:58:05.248Z,31.73
2018-02-13T19:00:32.702Z,22.90
2018-02-13T19:03:00.162Z,27.27
2018-02-13T19:05:27.614Z,25.47
2018-02-13T19:07:55.074Z,36.40
2018-02-13T19:10:22.540Z,34.73
2018-02-13T19:12:49.999Z,39.37
2018-02-13T19:15:17.463Z,34.33
2018-02-13T19:17:44.918Z,29.53
2018-02-13T19:20:12.378Z,28.43
2018-02-13T19:22:39.834Z,23.97
2018-02-13T19:25:07.291Z,22.97
2018-02-13T19:27:34.751Z,25.80
2018-02-13T19:30:02.203Z,25.30
2018-02-13T19:32:29.674Z,26.03
2018-02-13T19:34:57.899Z,30.47
2018-02-13T19:37:25.363Z,28.97
2018-02-13T19:39:52.819Z,25.93
2018-02-13T19:42:20.274Z,24.50
2018-02-13T19:44:47.734Z,20.20
2018-02-13T19:47:15.210Z,20.30
2018-02-13T19:49:42.670Z,18.37
2018-02-13T19:52:10.122Z,17.53
2018-02-13T19:54:37.591Z,18.50
2018-02-13T19:57:05.066Z,18.87
2018-02-13T19:59:33.294Z,16.57
2018-02-13T20:02:01.266Z,23.43
2018-02-13T20:04:28.722Z,23.67
2018-02-13T20:06:56.174Z,18.77
2018-02-13T20:09:23.639Z,16.57
2018-02-13T20:11:51.091Z,18.30
2018-02-13T20:14:18.559Z,21.60
2018-02-13T20:16:46.014Z,22.00
2018-02-13T20:19:13.471Z,21.27
2018-02-13T20:21:40.931Z,19.20
2018-02-13T20:24:08.402Z,27.77
2018-02-13T20:26:36.625Z,32.50
2018-02-13T20:29:04.079Z,37.20
2018-02-13T20:31:31.538Z,37.43
2018-02-13T20:33:59.754Z,20.53
2018-02-13T20:36:27.215Z,25.07
2018-02-13T20:38:55.438Z,17.73
2018-02-13T20:41:22.894Z,16.07
2018-02-13T20:43:50.352Z,16.97
2018-02-13T20:46:17.806Z,18.40
2018-02-13T20:48:45.263Z,18.63
2018-02-13T20:51:12.723Z,16.80
2018-02-13T20:53:40.174Z,19.30
2018-02-13T20:56:07.838Z,14.27
2018-02-13T20:58:35.292Z,18.30
2018-02-13T21:01:02.753Z,15.80
2018-02-13T21:03:30.231Z,19.97
2018-02-13T21:05:57.698Z,18.97
2018-02-13T21:08:25.150Z,15.57
2018-02-13T21:10:52.615Z,18.60
2018-02-13T21:13:20.097Z,14.90
2018-02-13T21:15:48.331Z,16.73
2018-02-13T21:18:15.797Z,16.30
2018-02-13T21:20:43.260Z,15.17
2018-02-13T21:23:10.710Z,13.47
2018-02-13T21:25:38.166Z,15.13
2018-02-13T21:28:05.623Z,19.27
2018-02-13T21:30:33.093Z,14.23
2018-02-13T21:33:00.551Z,13.00
2018-02-13T21:35:28.023Z,12.37
2018-02-13T21:37:56.242Z,13.53
2018-02-13T21:40:23.716Z,13.00
2018-02-13T21:42:51.250Z,14.13
2018-02-13T21:45:18.710Z,14.80
2018-02-13T21:47:46.230Z,12.60
2018-02-13T21:50:13.678Z,17.10
2018-02-13T21:52:41.947Z,13.73
2018-02-13T21:55:10.174Z,17.73
2018-02-13T21:57:37.638Z,18.30
2018-02-13T22:00:05.099Z,19.20
2018-02-13T22:02:32.611Z,20.23
2018-02-13T22:05:00.080Z,17.53
2018-02-13T22:07:27.550Z,17.73
2018-02-13T22:09:55.051Z,14.67
2018-02-13T22:12:22.524Z,22.53
2018-02-13T22:14:50.751Z,15.40
2018-02-13T22:17:18.202Z,18.43
2018-02-13T22:19:45.648Z,19.50
2018-02-13T22:22:13.124Z,15.70
2018-02-13T22:24:40.590Z,20.97
2018-02-13T22:27:08.055Z,31.90
2018-02-13T22:29:35.508Z,29.33
2018-02-13T22:32:02.974Z,27.90
2018-02-13T22:34:30.430Z,28.80
2018-02-13T22:36:57.902Z,26.43
2018-02-13T22:39:26.165Z,24.73
2018-02-13T22:41:53.617Z,30.57
2018-02-13T22:44:21.080Z,27.13
2018-02-13T22:46:48.529Z,24.00
2018-02-13T22:49:15.978Z,23.03
2018-02-13T22:51:43.433Z,21.03
2018-02-13T22:54:10.894Z,24.60
2018-02-13T22:56:38.342Z,19.30
2018-02-13T22:59:05.811Z,17.43
2018-02-13T23:01:33.271Z,14.03
2018-02-13T23:04:01.507Z,19.70
2018-02-13T23:06:28.974Z,20.00
2018-02-13T23:08:56.434Z,20.63
2018-02-13T23:11:23.903Z,20.83
2018-02-13T23:13:51.366Z,20.50
2018-02-13T23:16:18.811Z,19.87
2018-02-13T23:18:46.270Z,21.87
2018-02-13T23:21:13.718Z,23.63
2018-02-13T23:23:41.178Z,16.93
2018-02-13T23:26:08.635Z,22.00
2018-02-13T23:28:36.093Z,23.40
2018-02-13T23:31:03.547Z,24.20
2018-02-13T23:33:31.006Z,20.20
2018-02-13T23:35:58.459Z,21.33
2018-02-13T23:38:25.927Z,20.17
2018-02-13T23:40:53.382Z,25.37
2018-02-13T23:43:20.855Z,18.23
2018-02-13T23:45:49.088Z,20.20
2018-02-13T23:48:16.543Z,23.50
2018-02-13T23:50:44.002Z,22.03
2018-02-13T23:53:11.475Z,17.73
2018-02-13T23:55:39.328Z,21.77
2018-02-13T23:58:06.779Z,22.93
